createdAt,value
2019-01-13T00:02:20.797Z,99545.13
2019-01-13T00:04:46.661Z,99553.83
2019-01-13T00:07:12.513Z,99558.61
2019-01-13T00:09:38.413Z,99540.78
2019-01-13T00:12:04.288Z,99543.41
2019-01-13T00:14:30.187Z,99548.12
2019-01-13T00:16:56.147Z,99532.48
2019-01-13T00:19:22.008Z,99527.26
2019-01-13T00:21:47.894Z,99528.59
2019-01-13T00:24:13.752Z,99522.06
2019-01-13T00:26:39.670Z,99506.00
2019-01-13T00:29:05.539Z,99511.64
2019-01-13T00:31:31.441Z,99519.91
2019-01-13T00:33:57.306Z,99505.12
2019-01-13T00:36:23.198Z,99507.69
2019-01-13T00:38:49.074Z,99509.05
2019-01-13T00:41:14.974Z,99507.70
2019-01-13T00:43:40.958Z,99507.70
2019-01-13T00:46:06.802Z,99504.99
2019-01-13T00:48:32.724Z,99496.28
2019-01-13T00:50:58.616Z,99496.34
2019-01-13T00:53:24.560Z,99494.55
2019-01-13T00:55:51.009Z,99492.09
2019-01-13T00:58:16.835Z,99493.40
2019-01-13T01:00:42.732Z,99499.42
2019-01-13T01:03:08.717Z,99502.89
2019-01-13T01:05:34.575Z,99517.98
2019-01-13T01:08:00.472Z,99502.37
2019-01-13T01:10:26.344Z,99495.47
2019-01-13T01:12:52.210Z,99508.45
2019-01-13T01:15:18.176Z,99504.98
2019-01-13T01:17:44.053Z,99493.70
2019-01-13T01:20:12.754Z,99487.19
2019-01-13T01:22:38.636Z,99488.94
2019-01-13T01:25:06.105Z,99496.73
2019-01-13T01:27:31.973Z,99507.05
2019-01-13T01:29:57.859Z,99494.89
2019-01-13T01:32:23.730Z,99500.11
2019-01-13T01:34:49.602Z,99501.75
2019-01-13T01:37:15.493Z,99500.92
2019-01-13T01:39:41.370Z,99488.88
2019-01-13T01:42:07.225Z,99485.44
2019-01-13T01:44:33.096Z,99483.20
2019-01-13T01:46:58.970Z,99484.11
2019-01-13T01:49:24.882Z,99478.09
2019-01-13T01:51:50.767Z,99474.60
2019-01-13T01:54:16.862Z,99471.98
2019-01-13T01:56:43.094Z,99452.42
2019-01-13T01:59:08.943Z,99462.41
2019-01-13T02:01:34.836Z,99458.09
2019-01-13T02:04:00.682Z,99454.20
2019-01-13T02:06:26.658Z,99461.98
2019-01-13T02:08:52.548Z,99453.73
2019-01-13T02:11:18.469Z,99458.09
2019-01-13T02:13:44.411Z,99456.34
2019-01-13T02:16:12.186Z,99445.09
2019-01-13T02:18:38.100Z,99433.83
2019-01-13T02:21:03.959Z,99428.14
2019-01-13T02:23:29.822Z,99429.05
2019-01-13T02:25:55.708Z,99431.15
2019-01-13T02:28:21.764Z,99419.02
2019-01-13T02:30:49.237Z,99412.06
2019-01-13T02:33:15.441Z,99410.34
2019-01-13T02:35:41.305Z,99412.91
2019-01-13T02:38:07.309Z,99415.44
2019-01-13T02:40:33.295Z,99431.56
2019-01-13T02:42:59.152Z,99424.61
2019-01-13T02:45:25.918Z,99428.45
2019-01-13T02:47:51.930Z,99421.50
2019-01-13T02:50:17.821Z,99413.75
2019-01-13T02:52:43.688Z,99412.56
2019-01-13T02:55:09.711Z,99411.70
2019-01-13T02:57:36.391Z,99421.28
2019-01-13T03:00:06.269Z,99415.55
2019-01-13T03:02:32.165Z,99415.55
2019-01-13T03:04:58.019Z,99420.33
2019-01-13T03:07:23.903Z,99410.38
2019-01-13T03:09:49.789Z,99412.09
2019-01-13T03:12:15.658Z,99415.17
2019-01-13T03:14:41.546Z,99419.00
2019-01-13T03:17:07.424Z,99418.57
2019-01-13T03:19:33.321Z,99422.91
2019-01-13T03:21:59.166Z,99407.77
2019-01-13T03:24:25.036Z,99404.69
2019-01-13T03:26:51.061Z,99405.48
2019-01-13T03:29:16.931Z,99415.02
2019-01-13T03:31:42.958Z,99416.33
2019-01-13T03:34:08.881Z,99427.63
2019-01-13T03:36:34.744Z,99429.37
2019-01-13T03:39:00.646Z,99424.20
2019-01-13T03:41:26.632Z,99419.02
2019-01-13T03:43:52.502Z,99411.53
2019-01-13T03:46:18.402Z,99417.65
2019-01-13T03:48:44.377Z,99418.47
2019-01-13T03:51:10.248Z,99419.41
2019-01-13T03:53:36.141Z,99419.39
2019-01-13T03:56:02.060Z,99432.02
2019-01-13T03:58:28.818Z,99417.59
2019-01-13T04:00:54.718Z,99420.68
2019-01-13T04:03:20.693Z,99425.50
2019-01-13T04:05:46.591Z,99420.09
2019-01-13T04:08:12.544Z,99420.09
2019-01-13T04:10:38.418Z,99428.02
2019-01-13T04:13:04.310Z,99430.67
2019-01-13T04:15:39.351Z,99423.64
2019-01-13T04:18:05.239Z,99427.16
2019-01-13T04:20:31.247Z,99414.86
2019-01-13T04:22:57.140Z,99421.07
2019-01-13T04:25:22.992Z,99411.05
2019-01-13T04:27:48.859Z,99415.28
2019-01-13T04:30:14.725Z,99415.31
2019-01-13T04:32:40.604Z,99409.67
2019-01-13T04:35:06.816Z,99408.83
2019-01-13T04:37:32.714Z,99391.13
2019-01-13T04:39:58.577Z,99389.38
2019-01-13T04:42:24.460Z,99388.62
2019-01-13T04:44:50.338Z,99375.53
2019-01-13T04:47:16.225Z,99381.13
2019-01-13T04:49:42.083Z,99374.19
2019-01-13T04:52:07.967Z,99358.17
2019-01-13T04:54:33.858Z,99355.64
2019-01-13T04:56:59.783Z,99374.27
2019-01-13T04:59:26.363Z,99367.28
2019-01-13T05:01:52.272Z,99372.50
2019-01-13T05:04:18.127Z,99361.17
2019-01-13T05:06:44.103Z,99365.08
2019-01-13T05:09:10.105Z,99364.71
2019-01-13T05:11:35.980Z,99370.38
2019-01-13T05:14:01.845Z,99367.75
2019-01-13T05:16:27.715Z,99364.67
2019-01-13T05:18:53.579Z,99363.28
2019-01-13T05:21:19.463Z,99366.80
2019-01-13T05:23:45.329Z,99358.64
2019-01-13T05:26:11.219Z,99363.80
2019-01-13T05:28:37.093Z,99360.34
2019-01-13T05:31:02.950Z,99366.35
2019-01-13T05:33:28.844Z,99371.88
2019-01-13T05:35:54.735Z,99386.25
2019-01-13T05:38:20.598Z,99384.93
2019-01-13T05:40:46.482Z,99374.16
2019-01-13T05:43:12.475Z,99369.85
2019-01-13T05:45:38.376Z,99363.79
2019-01-13T05:48:04.373Z,99362.47
2019-01-13T05:50:30.242Z,99361.16
2019-01-13T05:52:56.445Z,99360.23
2019-01-13T05:55:22.814Z,99362.49
2019-01-13T05:57:48.723Z,99365.05
2019-01-13T06:00:17.184Z,99364.11
2019-01-13T06:02:43.053Z,99359.81
2019-01-13T06:05:08.907Z,99380.22
2019-01-13T06:07:34.762Z,99373.34
2019-01-13T06:10:00.638Z,99378.83
2019-01-13T06:12:26.531Z,99384.05
2019-01-13T06:14:52.427Z,99392.84
2019-01-13T06:17:18.302Z,99391.51
2019-01-13T06:19:44.156Z,99387.94
2019-01-13T06:22:10.028Z,99387.99
2019-01-13T06:24:35.896Z,99394.20
2019-01-13T06:27:01.775Z,99398.09
2019-01-13T06:29:27.874Z,99392.95
2019-01-13T06:31:56.397Z,99395.05
2019-01-13T06:34:21.544Z,99403.66
2019-01-13T06:36:47.465Z,99415.86
2019-01-13T06:39:13.321Z,99397.58
2019-01-13T06:41:39.195Z,99395.84
2019-01-13T06:44:05.056Z,99401.16
2019-01-13T06:46:30.929Z,99413.16
2019-01-13T06:48:58.183Z,99414.94
2019-01-13T06:51:24.054Z,99415.29
2019-01-13T06:53:50.028Z,99420.37
2019-01-13T06:56:15.982Z,99420.11
2019-01-13T06:58:41.893Z,99420.11
2019-01-13T07:01:08.736Z,99424.42
2019-01-13T07:03:34.586Z,99431.30
2019-01-13T07:06:00.457Z,99438.62
2019-01-13T07:08:26.310Z,99444.64
2019-01-13T07:10:52.172Z,99445.03
2019-01-13T07:13:18.041Z,99449.80
2019-01-13T07:15:43.916Z,99455.83
2019-01-13T07:18:09.807Z,99450.50
2019-01-13T07:20:35.717Z,99450.99
2019-01-13T07:23:01.617Z,99443.67
2019-01-13T07:25:27.454Z,99444.17
2019-01-13T07:27:53.316Z,99442.81
2019-01-13T07:30:22.169Z,99441.15
2019-01-13T07:32:48.298Z,99446.44
2019-01-13T07:35:14.204Z,99447.77
2019-01-13T07:37:40.061Z,99455.96
2019-01-13T07:40:12.545Z,99450.59
2019-01-13T07:42:38.414Z,99451.47
2019-01-13T07:45:07.886Z,99451.19
2019-01-13T07:47:33.739Z,99443.33
2019-01-13T07:49:59.634Z,99436.81
2019-01-13T07:52:25.516Z,99459.07
2019-01-13T07:54:51.588Z,99438.23
2019-01-13T07:57:17.560Z,99436.16
2019-01-13T07:59:43.461Z,99443.84
2019-01-13T08:02:10.219Z,99436.47
2019-01-13T08:04:36.064Z,99435.17
2019-01-13T08:07:01.932Z,99434.80
2019-01-13T08:09:27.814Z,99435.27
2019-01-13T08:11:54.045Z,99435.36
2019-01-13T08:14:19.930Z,99441.01
2019-01-13T08:16:45.837Z,99444.06
2019-01-13T08:19:11.699Z,99454.06
2019-01-13T08:21:37.563Z,99454.50
2019-01-13T08:24:03.424Z,99461.90
2019-01-13T08:26:29.326Z,99452.80
2019-01-13T08:28:55.187Z,99450.72
2019-01-13T08:31:21.051Z,99459.40
2019-01-13T08:33:46.939Z,99456.00
2019-01-13T08:36:12.836Z,99460.80
2019-01-13T08:38:38.698Z,99470.39
2019-01-13T08:41:04.604Z,99450.44
2019-01-13T08:43:30.448Z,99446.13
2019-01-13T08:45:56.328Z,99446.13
2019-01-13T08:48:22.170Z,99452.61
2019-01-13T08:50:48.019Z,99456.52
2019-01-13T08:53:13.882Z,99463.48
2019-01-13T08:55:39.753Z,99470.86
2019-01-13T08:58:05.621Z,99462.61
2019-01-13T09:00:31.532Z,99467.37
2019-01-13T09:02:58.098Z,99460.00
2019-01-13T09:05:23.997Z,99466.08
2019-01-13T09:07:49.863Z,99453.02
2019-01-13T09:10:17.427Z,99462.96
2019-01-13T09:12:43.288Z,99465.50
2019-01-13T09:15:12.248Z,99462.41
2019-01-13T09:17:38.132Z,99467.56
2019-01-13T09:20:07.818Z,99446.64
2019-01-13T09:22:33.801Z,99448.75
2019-01-13T09:24:59.785Z,99456.98
2019-01-13T09:27:25.668Z,99461.25
2019-01-13T09:29:51.516Z,99465.16
2019-01-13T09:32:17.371Z,99466.42
2019-01-13T09:34:43.244Z,99449.19
2019-01-13T09:37:09.124Z,99448.27
2019-01-13T09:39:35.013Z,99446.91
2019-01-13T09:42:00.881Z,99449.81
2019-01-13T09:44:26.743Z,99448.87
2019-01-13T09:46:52.631Z,99443.47
2019-01-13T09:49:18.491Z,99435.48
2019-01-13T09:51:44.448Z,99441.55
2019-01-13T09:54:10.322Z,99455.64
2019-01-13T09:56:36.184Z,99451.64
2019-01-13T09:59:02.049Z,99447.42
2019-01-13T10:01:27.993Z,99432.80
2019-01-13T10:03:54.890Z,99428.67
2019-01-13T10:06:20.766Z,99417.73
2019-01-13T10:08:46.629Z,99390.34
2019-01-13T10:11:12.536Z,99392.89
2019-01-13T10:13:38.389Z,99402.72
2019-01-13T10:16:04.246Z,99400.27
2019-01-13T10:18:30.113Z,99405.05
2019-01-13T10:20:56.152Z,99400.53
2019-01-13T10:23:22.209Z,99379.70
2019-01-13T10:25:48.058Z,99379.70
2019-01-13T10:28:13.932Z,99376.00
2019-01-13T10:30:39.846Z,99363.77
2019-01-13T10:33:05.737Z,99359.64
2019-01-13T10:35:31.590Z,99361.27
2019-01-13T10:37:57.469Z,99361.09
2019-01-13T10:40:26.973Z,99350.58
2019-01-13T10:42:52.828Z,99360.40
2019-01-13T10:45:18.821Z,99361.91
2019-01-13T10:51:12.152Z,99385.59
2019-01-13T10:53:38.064Z,99375.50
2019-01-13T10:56:03.932Z,99369.94
2019-01-13T10:58:29.785Z,99353.37
2019-01-13T11:00:55.671Z,99352.49
2019-01-13T11:03:21.849Z,99333.08
2019-01-13T11:05:48.219Z,99336.63
2019-01-13T11:08:14.143Z,99339.38
2019-01-13T11:10:40.069Z,99344.47
2019-01-13T11:13:05.943Z,99347.21
2019-01-13T11:15:31.804Z,99344.61
2019-01-13T11:17:57.660Z,99357.92
2019-01-13T11:20:32.356Z,99368.80
2019-01-13T11:22:58.368Z,99366.06
2019-01-13T11:25:24.273Z,99365.07
2019-01-13T11:27:50.140Z,99353.50
2019-01-13T11:30:18.082Z,99336.16
2019-01-13T11:32:43.926Z,99327.45
2019-01-13T11:35:12.525Z,99328.45
2019-01-13T11:37:38.412Z,99321.34
2019-01-13T11:40:10.643Z,99321.03
2019-01-13T11:42:36.503Z,99318.11
2019-01-13T11:45:04.304Z,99322.20
2019-01-13T11:47:30.180Z,99322.27
2019-01-13T11:49:56.068Z,99331.25
2019-01-13T11:52:21.942Z,99333.09
2019-01-13T11:54:47.826Z,99325.36
2019-01-13T11:57:14.105Z,99320.86
2019-01-13T11:59:40.086Z,99312.48
2019-01-13T12:02:06.016Z,99298.85
2019-01-13T12:04:31.911Z,99298.72
2019-01-13T12:06:58.511Z,99292.64
2019-01-13T12:09:24.474Z,99284.55
2019-01-13T12:11:50.358Z,99282.11
2019-01-13T12:14:16.319Z,99267.78
2019-01-13T12:16:42.557Z,99263.06
2019-01-13T12:19:08.398Z,99259.95
2019-01-13T12:21:34.292Z,99246.72
2019-01-13T12:24:00.199Z,99232.87
2019-01-13T12:26:26.081Z,99229.54
2019-01-13T12:28:52.080Z,99234.33
2019-01-13T12:31:17.942Z,99231.80
2019-01-13T12:33:43.866Z,99231.96
2019-01-13T12:36:09.761Z,99230.75
2019-01-13T12:38:35.625Z,99223.92
2019-01-13T12:41:01.507Z,99220.70
2019-01-13T12:43:27.423Z,99229.42
2019-01-13T12:45:53.292Z,99220.88
2019-01-13T12:48:19.193Z,99213.25
2019-01-13T12:50:45.195Z,99214.52
2019-01-13T12:53:11.055Z,99218.80
2019-01-13T12:55:36.977Z,99212.77
2019-01-13T12:58:06.708Z,99223.63
2019-01-13T13:00:32.580Z,99202.81
2019-01-13T13:02:58.442Z,99193.10
2019-01-13T13:05:24.340Z,99194.77
2019-01-13T13:07:51.484Z,99183.80
2019-01-13T13:10:26.724Z,99184.80
2019-01-13T13:12:52.711Z,99184.16
2019-01-13T13:15:18.621Z,99176.38
2019-01-13T13:17:45.367Z,99156.37
2019-01-13T13:20:15.064Z,99149.90
2019-01-13T13:22:40.947Z,99147.22
2019-01-13T13:25:08.804Z,99145.63
2019-01-13T13:27:34.679Z,99146.05
2019-01-13T13:30:00.549Z,99131.39
2019-01-13T13:32:26.448Z,99138.06
2019-01-13T13:34:52.398Z,99136.16
2019-01-13T13:37:18.271Z,99136.81
2019-01-13T13:39:44.138Z,99142.89
2019-01-13T13:42:10.068Z,99150.75
2019-01-13T13:44:35.885Z,99146.78
2019-01-13T13:47:01.779Z,99163.86
2019-01-13T13:49:28.031Z,99153.25
2019-01-13T13:51:54.009Z,99148.27
2019-01-13T13:54:19.955Z,99135.14
2019-01-13T13:56:45.922Z,99124.91
2019-01-13T13:59:11.947Z,99124.91
2019-01-13T14:01:37.814Z,99119.47
2019-01-13T14:04:03.799Z,99116.99
2019-01-13T14:06:29.695Z,99120.58
2019-01-13T14:08:56.639Z,99118.30
2019-01-13T14:11:22.567Z,99113.43
2019-01-13T14:13:48.540Z,99109.33
2019-01-13T14:16:14.544Z,99118.66
2019-01-13T14:18:40.410Z,99121.38
2019-01-13T14:21:06.310Z,99111.20
2019-01-13T14:23:32.174Z,99113.07
2019-01-13T14:26:00.041Z,99105.80
2019-01-13T14:28:25.945Z,99093.75
2019-01-13T14:30:51.825Z,99084.02
2019-01-13T14:33:17.738Z,99084.09
2019-01-13T14:35:43.715Z,99083.45
2019-01-13T14:38:09.603Z,99081.39
2019-01-13T14:40:35.490Z,99084.83
2019-01-13T14:43:01.374Z,99083.80
2019-01-13T14:45:27.272Z,99082.22
2019-01-13T14:47:53.164Z,99069.81
2019-01-13T14:50:21.044Z,99072.64
2019-01-13T14:52:47.537Z,99053.11
2019-01-13T14:55:13.916Z,99052.23
2019-01-13T14:57:39.787Z,99034.55
2019-01-13T15:00:11.381Z,99028.83
2019-01-13T15:02:37.252Z,99051.08
2019-01-13T15:05:06.278Z,99045.12
2019-01-13T15:07:32.324Z,99035.45
2019-01-13T15:09:58.946Z,99032.23
2019-01-13T15:12:24.992Z,99027.14
2019-01-13T15:14:51.038Z,99040.23
2019-01-13T15:17:16.918Z,99020.55
2019-01-13T15:19:42.891Z,99016.45
2019-01-13T15:22:08.824Z,99001.72
2019-01-13T15:24:34.728Z,99005.78
2019-01-13T15:27:00.591Z,99008.86
2019-01-13T15:29:26.498Z,99015.93
2019-01-13T15:31:52.391Z,99023.47
2019-01-13T15:34:18.321Z,99042.92
2019-01-13T15:36:44.185Z,99052.09
2019-01-13T15:39:10.059Z,99060.11
2019-01-13T15:41:35.991Z,99047.61
2019-01-13T15:44:01.915Z,99041.74
2019-01-13T15:46:27.789Z,99033.02
2019-01-13T15:48:53.644Z,99039.98
2019-01-13T15:51:19.551Z,99043.76
2019-01-13T15:53:45.513Z,99047.42
2019-01-13T15:56:11.401Z,99051.16
2019-01-13T15:58:37.262Z,99052.60
2019-01-13T16:01:03.165Z,99051.47
2019-01-13T16:03:29.046Z,99056.84
2019-01-13T16:05:54.928Z,99033.53
2019-01-13T16:08:20.821Z,99024.45
2019-01-13T16:10:47.028Z,99030.86
2019-01-13T16:13:12.941Z,99033.20
2019-01-13T16:15:38.838Z,99032.63
2019-01-13T16:18:04.725Z,99010.52
2019-01-13T16:20:32.691Z,99005.48
2019-01-13T16:22:58.599Z,99003.90
2019-01-13T16:25:24.478Z,99007.02
2019-01-13T16:27:50.355Z,99004.16
2019-01-13T16:30:27.563Z,98992.00
2019-01-13T16:32:53.459Z,98967.68
2019-01-13T16:35:19.349Z,98967.68
2019-01-13T16:37:45.351Z,98960.16
2019-01-13T16:40:13.236Z,98966.48
2019-01-13T16:42:39.140Z,98964.55
2019-01-13T16:45:08.153Z,98963.92
2019-01-13T16:47:34.012Z,98958.59
2019-01-13T16:49:59.903Z,98960.19
2019-01-13T16:52:25.774Z,98945.88
2019-01-13T16:54:51.679Z,98936.14
2019-01-13T16:57:17.670Z,98943.73
2019-01-13T16:59:43.555Z,98938.73
2019-01-13T17:02:09.426Z,98927.50
2019-01-13T17:04:35.420Z,98932.97
2019-01-13T17:07:01.313Z,98921.88
2019-01-13T17:09:27.295Z,98907.70
2019-01-13T17:11:53.466Z,98892.76
2019-01-13T17:14:19.381Z,98876.56
2019-01-13T17:16:45.243Z,98876.56
2019-01-13T17:19:11.110Z,98897.17
2019-01-13T17:21:36.974Z,98904.63
2019-01-13T17:24:02.842Z,98913.72
2019-01-13T17:26:28.694Z,98889.50
2019-01-13T17:28:54.611Z,98887.67
2019-01-13T17:31:20.503Z,98873.07
2019-01-13T17:33:46.376Z,98863.56
2019-01-13T17:36:12.260Z,98875.16
2019-01-13T17:38:38.153Z,98888.22
2019-01-13T17:41:04.051Z,98873.53
2019-01-13T17:43:29.930Z,98877.16
2019-01-13T17:45:55.803Z,98879.11
2019-01-13T17:48:21.667Z,98868.45
2019-01-13T17:50:47.516Z,98865.27
2019-01-13T17:53:13.376Z,98865.30
2019-01-13T17:55:39.248Z,98872.27
2019-01-13T17:58:05.233Z,98870.34
2019-01-13T18:00:37.405Z,98870.75
2019-01-13T18:03:06.388Z,98864.73
2019-01-13T18:05:32.272Z,98853.48
2019-01-13T18:07:58.440Z,98849.81
2019-01-13T18:10:24.791Z,98840.45
2019-01-13T18:12:51.495Z,98835.45
2019-01-13T18:15:17.376Z,98846.99
2019-01-13T18:17:43.263Z,98830.89
2019-01-13T18:20:12.786Z,98815.09
2019-01-13T18:22:38.665Z,98815.30
2019-01-13T18:25:04.541Z,98836.44
2019-01-13T18:27:30.409Z,98822.28
2019-01-13T18:29:56.268Z,98835.05
2019-01-13T18:32:22.157Z,98836.16
2019-01-13T18:34:50.352Z,98849.98
2019-01-13T18:37:15.938Z,98835.73
2019-01-13T18:39:41.813Z,98823.90
2019-01-13T18:42:08.066Z,98816.20
2019-01-13T18:44:34.039Z,98810.95
2019-01-13T18:46:59.936Z,98797.70
2019-01-13T18:49:25.929Z,98792.27
2019-01-13T18:51:51.809Z,98776.02
2019-01-13T18:54:18.102Z,98782.71
2019-01-13T18:56:44.020Z,98789.71
2019-01-13T18:59:09.875Z,98785.79
2019-01-13T19:01:35.782Z,98768.95
2019-01-13T19:04:01.738Z,98747.84
2019-01-13T19:06:27.613Z,98749.02
2019-01-13T19:08:53.500Z,98738.69
2019-01-13T19:11:19.401Z,98734.88
2019-01-13T19:14:01.173Z,98740.38
2019-01-13T19:16:30.136Z,98730.88
2019-01-13T19:18:56.354Z,98742.13
2019-01-13T19:21:22.237Z,98740.54
2019-01-13T19:23:48.098Z,98740.27
2019-01-13T19:26:14.004Z,98748.91
2019-01-13T19:28:39.885Z,98741.16
2019-01-13T19:31:05.769Z,98724.13
2019-01-13T19:33:31.655Z,98712.00
2019-01-13T19:35:57.534Z,98712.96
2019-01-13T19:38:23.505Z,98707.23
2019-01-13T19:40:49.422Z,98713.25
2019-01-13T19:43:15.349Z,98706.25
2019-01-13T19:45:41.207Z,98697.39
2019-01-13T19:48:07.089Z,98692.78
2019-01-13T19:50:32.964Z,98694.26
2019-01-13T19:53:00.457Z,98678.80
2019-01-13T19:55:26.608Z,98695.20
2019-01-13T19:57:52.581Z,98685.51
2019-01-13T20:00:27.261Z,98678.47
2019-01-13T20:02:53.120Z,98700.77
2019-01-13T20:05:19.093Z,98677.52
2019-01-13T20:07:45.349Z,98676.64
2019-01-13T20:10:12.731Z,98690.05
2019-01-13T20:12:38.635Z,98703.80
2019-01-13T20:15:09.123Z,98693.14
2019-01-13T20:17:35.296Z,98687.34
2019-01-13T20:20:01.689Z,98678.27
2019-01-13T20:22:27.584Z,98708.53
2019-01-13T20:24:53.461Z,98704.80
2019-01-13T20:27:19.439Z,98709.81
2019-01-13T20:29:45.538Z,98683.80
2019-01-13T20:32:11.435Z,98684.03
2019-01-13T20:34:37.584Z,98652.17
2019-01-13T20:37:03.659Z,98664.22
2019-01-13T20:39:29.835Z,98667.48
2019-01-13T20:41:55.838Z,98662.19
2019-01-13T20:44:21.999Z,98659.36
2019-01-13T20:46:47.894Z,98681.24
2019-01-13T20:49:14.127Z,98660.88
2019-01-13T20:51:40.259Z,98665.33
2019-01-13T20:54:07.923Z,98664.71
2019-01-13T20:56:34.264Z,98662.08
2019-01-13T20:59:00.261Z,98645.18
2019-01-13T21:01:26.311Z,98652.70
2019-01-13T21:03:52.954Z,98650.00
2019-01-13T21:06:18.964Z,98653.44
2019-01-13T21:08:44.834Z,98660.98
2019-01-13T21:11:11.979Z,98661.17
2019-01-13T21:13:37.931Z,98657.77
2019-01-13T21:16:04.854Z,98662.23
2019-01-13T21:18:30.740Z,98655.39
2019-01-13T21:20:57.017Z,98638.45
2019-01-13T21:23:22.920Z,98638.45
2019-01-13T21:25:48.825Z,98621.48
2019-01-13T21:28:15.041Z,98609.72
2019-01-13T21:30:40.999Z,98616.46
2019-01-13T21:33:06.866Z,98614.78
2019-01-13T21:35:34.006Z,98609.53
2019-01-13T21:38:00.769Z,98595.84
2019-01-13T21:40:26.852Z,98587.29
2019-01-13T21:42:52.732Z,98591.49
2019-01-13T21:45:22.496Z,98610.12
2019-01-13T21:47:48.452Z,98618.84
2019-01-13T21:50:17.423Z,98590.94
2019-01-13T21:52:43.299Z,98584.48
2019-01-13T21:55:11.185Z,98566.28
2019-01-13T21:57:37.087Z,98561.36
2019-01-13T22:00:08.046Z,98556.85
2019-01-13T22:02:34.049Z,98560.77
2019-01-13T22:04:59.936Z,98546.27
2019-01-13T22:07:25.798Z,98531.84
2019-01-13T22:09:51.665Z,98525.20
2019-01-13T22:12:17.543Z,98521.60
2019-01-13T22:14:43.480Z,98522.41
2019-01-13T22:17:09.633Z,98509.15
2019-01-13T22:19:35.519Z,98519.94
2019-01-13T22:22:01.506Z,98522.88
2019-01-13T22:24:27.388Z,98510.49
2019-01-13T22:26:53.269Z,98508.98
2019-01-13T22:29:19.285Z,98519.47
2019-01-13T22:31:45.173Z,98502.78
2019-01-13T22:34:11.107Z,98506.94
2019-01-13T22:36:37.048Z,98498.76
2019-01-13T22:39:07.752Z,98500.41
2019-01-13T22:41:33.862Z,98494.09
2019-01-13T22:43:59.733Z,98492.69
2019-01-13T22:46:25.689Z,98492.19
2019-01-13T22:48:51.598Z,98468.53
2019-01-13T22:51:17.450Z,98453.41
2019-01-13T22:53:43.338Z,98439.14
2019-01-13T22:56:09.261Z,98447.66
2019-01-13T22:58:35.128Z,98455.45
2019-01-13T23:01:12.836Z,98433.18
2019-01-13T23:03:38.802Z,98421.71
2019-01-13T23:06:04.640Z,98427.61
2019-01-13T23:08:30.482Z,98422.87
2019-01-13T23:10:56.387Z,98404.95
2019-01-13T23:13:22.258Z,98399.00
2019-01-13T23:15:48.170Z,98411.70
2019-01-13T23:18:14.680Z,98404.67
2019-01-13T23:20:40.677Z,98406.08
2019-01-13T23:23:06.542Z,98413.44
2019-01-13T23:25:32.412Z,98416.37
2019-01-13T23:27:58.423Z,98404.39
2019-01-13T23:30:24.314Z,98354.61
2019-01-13T23:32:50.243Z,98354.61
2019-01-13T23:35:16.117Z,98359.84
2019-01-13T23:37:42.120Z,98344.69
2019-01-13T23:40:08.033Z,98354.31
2019-01-13T23:42:34.007Z,98354.31
2019-01-13T23:44:59.869Z,98345.91
2019-01-13T23:47:25.769Z,98350.92
2019-01-13T23:49:51.612Z,98351.80
2019-01-13T23:52:17.502Z,98337.03
2019-01-13T23:54:43.397Z,98329.66
2019-01-13T23:57:09.269Z,98319.94
2019-01-13T23:59:35.260Z,98332.59
